createdAt,value
2017-02-02T00:00:23.928Z,0
2017-02-02T00:01:30.094Z,0
2017-02-02T00:02:36.268Z,0
2017-02-02T00:03:40.485Z,0
2017-02-02T00:04:45.732Z,0
2017-02-02T00:05:51.914Z,0
2017-02-02T00:06:57.123Z,0
2017-02-02T00:08:03.391Z,0
2017-02-02T00:09:08.573Z,0
2017-02-02T00:10:12.768Z,0
2017-02-02T00:11:18.939Z,0
2017-02-02T00:12:23.140Z,0
2017-02-02T00:13:28.346Z,0
2017-02-02T00:14:34.614Z,0
2017-02-02T00:15:39.802Z,0
2017-02-02T00:16:45.966Z,0
2017-02-02T00:17:52.134Z,0
2017-02-02T00:18:57.332Z,0
2017-02-02T00:20:03.493Z,0
2017-02-02T00:21:09.670Z,0
2017-02-02T00:22:14.842Z,0
2017-02-02T00:23:20.018Z,0
2017-02-02T00:24:26.186Z,0
2017-02-02T00:25:30.477Z,0
2017-02-02T00:26:34.709Z,0
2017-02-02T00:27:38.924Z,0
2017-02-02T00:28:45.088Z,0
2017-02-02T00:29:51.253Z,0
2017-02-02T00:30:57.440Z,0
2017-02-02T00:32:00.691Z,0
2017-02-02T00:33:06.852Z,0
2017-02-02T00:34:12.274Z,0
2017-02-02T00:35:18.442Z,0
2017-02-02T00:36:23.648Z,0
2017-02-02T00:37:29.819Z,0
2017-02-02T00:38:34.026Z,0
2017-02-02T00:39:38.256Z,0
2017-02-02T00:41:49.600Z,0
2017-02-02T00:42:54.800Z,0
2017-02-02T00:43:58.042Z,0
2017-02-02T00:45:03.241Z,0
2017-02-02T00:46:07.443Z,0
2017-02-02T00:47:11.683Z,0
2017-02-02T00:48:17.017Z,0
2017-02-02T00:49:22.235Z,0
2017-02-02T00:50:27.399Z,0
2017-02-02T00:51:31.616Z,0
2017-02-02T00:52:36.798Z,0
2017-02-02T00:53:41.989Z,0
2017-02-02T00:54:47.252Z,0
2017-02-02T00:55:52.415Z,0
2017-02-02T00:56:56.643Z,0
2017-02-02T00:57:59.931Z,0
2017-02-02T00:59:03.240Z,0
2017-02-02T01:00:09.374Z,0
2017-02-02T01:01:14.543Z,0
2017-02-02T01:02:19.722Z,0
2017-02-02T01:03:24.919Z,0
2017-02-02T01:04:30.080Z,0
2017-02-02T01:05:35.278Z,0
2017-02-02T01:06:41.554Z,0
2017-02-02T01:07:45.770Z,0
2017-02-02T01:08:51.937Z,0
2017-02-02T01:09:55.168Z,0
2017-02-02T01:11:00.339Z,0
2017-02-02T01:12:06.506Z,0
2017-02-02T01:13:12.683Z,0
2017-02-02T01:14:17.889Z,0
2017-02-02T01:15:22.244Z,0
2017-02-02T01:16:27.429Z,0
2017-02-02T01:17:33.592Z,0
2017-02-02T01:18:39.760Z,0
2017-02-02T01:19:44.959Z,0
2017-02-02T01:20:51.144Z,0
2017-02-02T01:21:57.304Z,0
2017-02-02T01:23:01.527Z,0
2017-02-02T01:24:07.681Z,0
2017-02-02T01:25:11.887Z,0
2017-02-02T01:26:16.326Z,0
2017-02-02T01:27:21.525Z,0
2017-02-02T01:28:25.749Z,0
2017-02-02T01:29:31.919Z,0
2017-02-02T01:30:37.184Z,0
2017-02-02T01:31:42.386Z,0
2017-02-02T01:32:46.595Z,0
2017-02-02T01:33:51.787Z,0
2017-02-02T01:34:56.016Z,0
2017-02-02T01:36:02.184Z,0
2017-02-02T01:37:07.386Z,0
2017-02-02T01:38:13.542Z,0
2017-02-02T01:39:18.743Z,0
2017-02-02T01:40:23.083Z,0
2017-02-02T01:41:29.264Z,0
2017-02-02T01:42:35.428Z,0
2017-02-02T01:43:39.701Z,0
2017-02-02T01:44:45.819Z,0
2017-02-02T01:45:50.987Z,0
2017-02-02T01:46:56.181Z,0
2017-02-02T01:48:02.554Z,0
2017-02-02T01:49:06.813Z,0
2017-02-02T01:50:12.962Z,0
2017-02-02T01:51:18.162Z,0
2017-02-02T01:52:23.358Z,0
2017-02-02T01:53:28.565Z,0
2017-02-02T01:54:34.728Z,0
2017-02-02T01:55:39.899Z,0
2017-02-02T01:56:46.063Z,0
2017-02-02T01:57:52.290Z,0
2017-02-02T01:58:57.463Z,0
2017-02-02T02:00:02.634Z,0
2017-02-02T02:01:07.817Z,0
2017-02-02T02:02:11.100Z,0
2017-02-02T02:03:16.315Z,0
2017-02-02T02:04:21.538Z,0
2017-02-02T02:05:25.766Z,0
2017-02-02T02:06:30.972Z,0
2017-02-02T02:07:36.191Z,0
2017-02-02T02:08:42.352Z,0
2017-02-02T02:09:46.589Z,0
2017-02-02T02:10:52.768Z,0
2017-02-02T02:11:57.948Z,0
2017-02-02T02:13:04.200Z,0
2017-02-02T02:14:09.395Z,0
2017-02-02T02:16:18.806Z,0
2017-02-02T02:17:24.040Z,0
2017-02-02T02:18:29.201Z,0
2017-02-02T02:19:35.368Z,0
2017-02-02T02:20:41.538Z,0
2017-02-02T02:21:44.775Z,0
2017-02-02T02:22:50.973Z,0
2017-02-02T02:23:57.120Z,0
2017-02-02T02:25:03.284Z,0
2017-02-02T02:26:07.556Z,0
2017-02-02T02:27:13.690Z,0
2017-02-02T02:28:18.886Z,0
2017-02-02T02:29:25.052Z,0
2017-02-02T02:30:30.211Z,0
2017-02-02T02:31:35.383Z,0
2017-02-02T02:32:40.578Z,0
2017-02-02T02:33:45.743Z,0
2017-02-02T02:34:51.903Z,0
2017-02-02T02:35:57.104Z,0
2017-02-02T02:37:01.337Z,0
2017-02-02T02:38:05.519Z,0
2017-02-02T02:39:10.708Z,0
2017-02-02T02:40:16.885Z,0
2017-02-02T02:41:22.090Z,0
2017-02-02T02:42:27.295Z,0
2017-02-02T02:43:31.553Z,0
2017-02-02T02:44:37.695Z,0
2017-02-02T02:45:41.902Z,0
2017-02-02T02:46:48.065Z,0
2017-02-02T02:47:53.247Z,0
2017-02-02T02:48:58.422Z,0
2017-02-02T02:50:03.670Z,0
2017-02-02T02:51:08.090Z,0
2017-02-02T02:52:13.394Z,0
2017-02-02T02:53:19.624Z,0
2017-02-02T02:54:24.839Z,0
2017-02-02T02:55:31.019Z,0
2017-02-02T02:56:37.178Z,0
2017-02-02T02:57:42.377Z,0
2017-02-02T02:58:48.554Z,0
2017-02-02T02:59:54.792Z,0
2017-02-02T03:00:58.086Z,0
2017-02-02T03:02:03.264Z,0
2017-02-02T03:03:08.459Z,0
2017-02-02T03:04:12.682Z,0
2017-02-02T03:05:16.914Z,0
2017-02-02T03:06:22.109Z,0
2017-02-02T03:07:28.274Z,0
2017-02-02T03:08:32.526Z,0
2017-02-02T03:09:36.738Z,0
2017-02-02T03:10:41.964Z,0
2017-02-02T03:11:47.150Z,0
2017-02-02T03:12:52.350Z,0
2017-02-02T03:13:57.550Z,0
2017-02-02T03:15:03.739Z,0
2017-02-02T03:16:09.937Z,0
2017-02-02T03:17:14.176Z,0
2017-02-02T03:18:20.346Z,0
2017-02-02T03:19:25.547Z,0
2017-02-02T03:20:30.751Z,0
2017-02-02T03:21:36.912Z,0
2017-02-02T03:22:42.115Z,0
2017-02-02T03:23:48.274Z,0
2017-02-02T03:24:53.475Z,0
2017-02-02T03:25:58.753Z,0
2017-02-02T03:27:03.940Z,0
2017-02-02T03:28:10.109Z,0
2017-02-02T03:29:15.310Z,0
2017-02-02T03:30:19.514Z,0
2017-02-02T03:31:24.750Z,0
2017-02-02T03:32:30.948Z,0
2017-02-02T03:33:36.101Z,0
2017-02-02T03:34:42.258Z,0
2017-02-02T03:35:48.439Z,0
2017-02-02T03:36:54.624Z,0
2017-02-02T03:38:00.766Z,0
2017-02-02T03:39:07.013Z,0
2017-02-02T03:40:11.174Z,0
2017-02-02T03:41:16.384Z,0
2017-02-02T03:42:21.589Z,0
2017-02-02T03:43:26.792Z,0
2017-02-02T03:44:32.960Z,0
2017-02-02T03:45:39.189Z,0
2017-02-02T03:46:44.371Z,0
2017-02-02T03:47:50.530Z,0
2017-02-02T03:48:55.723Z,0
2017-02-02T03:50:00.915Z,0
2017-02-02T03:51:07.083Z,0
2017-02-02T03:52:10.354Z,0
2017-02-02T03:53:15.620Z,0
2017-02-02T03:54:21.790Z,0
2017-02-02T03:55:27.007Z,0
2017-02-02T03:56:33.169Z,0
2017-02-02T03:57:38.370Z,0
2017-02-02T03:58:41.634Z,0
2017-02-02T03:59:46.875Z,0
2017-02-02T04:00:52.037Z,0
2017-02-02T04:01:58.196Z,0
2017-02-02T04:03:03.405Z,0
2017-02-02T04:04:09.582Z,0
2017-02-02T04:05:14.883Z,0
2017-02-02T04:06:20.084Z,0
2017-02-02T04:07:25.297Z,0
2017-02-02T04:08:30.492Z,0
2017-02-02T04:09:36.664Z,0
2017-02-02T04:10:42.826Z,0
2017-02-02T04:11:48.999Z,0
2017-02-02T04:12:54.193Z,0
2017-02-02T04:13:59.422Z,0
2017-02-02T04:15:04.595Z,0
2017-02-02T04:16:09.761Z,0
2017-02-02T04:17:15.928Z,0
2017-02-02T04:18:20.144Z,0
2017-02-02T04:19:25.342Z,0
2017-02-02T04:20:31.729Z,0
2017-02-02T04:21:35.931Z,0
2017-02-02T04:22:40.155Z,0
2017-02-02T04:23:45.321Z,0
2017-02-02T04:24:51.494Z,0
2017-02-02T04:25:57.700Z,0
2017-02-02T04:27:03.826Z,0
2017-02-02T04:28:08.996Z,0
2017-02-02T04:29:15.171Z,0
2017-02-02T04:30:20.379Z,0
2017-02-02T04:31:26.541Z,0
2017-02-02T04:32:32.711Z,0
2017-02-02T04:33:38.883Z,0
2017-02-02T04:34:44.136Z,0
2017-02-02T04:35:48.378Z,0
2017-02-02T04:36:52.619Z,0
2017-02-02T04:37:58.803Z,0
2017-02-02T04:39:05.020Z,0
2017-02-02T04:40:09.200Z,0
2017-02-02T04:41:14.401Z,0
2017-02-02T04:42:17.665Z,0
2017-02-02T04:43:22.824Z,0
2017-02-02T04:44:29.053Z,0
2017-02-02T04:45:34.234Z,0
2017-02-02T04:46:40.397Z,0
2017-02-02T04:47:45.589Z,0
2017-02-02T04:48:51.761Z,0
2017-02-02T04:49:56.929Z,0
2017-02-02T04:51:02.126Z,0
2017-02-02T04:52:07.297Z,0
2017-02-02T04:53:13.461Z,0
2017-02-02T04:54:19.818Z,0
2017-02-02T04:55:24.054Z,0
2017-02-02T04:56:29.244Z,0
2017-02-02T04:57:35.439Z,0
2017-02-02T04:58:40.660Z,0
2017-02-02T04:59:46.796Z,0
2017-02-02T05:00:52.005Z,0
2017-02-02T05:01:56.221Z,0
2017-02-02T05:03:01.426Z,0
2017-02-02T05:04:06.724Z,0
2017-02-02T05:05:11.154Z,0
2017-02-02T05:06:17.375Z,0
2017-02-02T05:07:21.954Z,0
2017-02-02T05:08:27.232Z,0
2017-02-02T05:09:32.393Z,0
2017-02-02T05:10:38.569Z,0
2017-02-02T05:11:43.775Z,0
2017-02-02T05:12:49.942Z,0
2017-02-02T05:13:56.159Z,0
2017-02-02T05:15:02.329Z,0
2017-02-02T05:16:08.488Z,0
2017-02-02T05:17:12.727Z,0
2017-02-02T05:18:17.894Z,0
2017-02-02T05:19:22.122Z,0
2017-02-02T05:20:28.331Z,0
2017-02-02T05:21:32.552Z,0
2017-02-02T05:22:36.861Z,0
2017-02-02T05:23:40.026Z,0
2017-02-02T05:24:46.188Z,0
2017-02-02T05:25:52.359Z,0
2017-02-02T05:26:58.536Z,0
2017-02-02T05:28:03.735Z,0
2017-02-02T05:29:09.906Z,0
2017-02-02T05:30:15.115Z,0
2017-02-02T05:31:20.327Z,0
2017-02-02T05:32:25.527Z,0
2017-02-02T05:33:28.787Z,0
2017-02-02T05:34:33.990Z,0
2017-02-02T05:35:40.160Z,0
2017-02-02T05:36:44.371Z,0
2017-02-02T05:37:50.539Z,0
2017-02-02T05:38:55.750Z,0
2017-02-02T05:40:01.916Z,0
2017-02-02T05:41:08.092Z,0
2017-02-02T05:42:13.289Z,0
2017-02-02T05:43:19.447Z,0
2017-02-02T05:44:24.655Z,0
2017-02-02T05:45:30.864Z,0
2017-02-02T05:46:36.072Z,0
2017-02-02T05:47:42.315Z,0
2017-02-02T05:48:48.481Z,0
2017-02-02T05:49:52.691Z,0
2017-02-02T05:50:57.891Z,0
2017-02-02T05:52:03.060Z,0
2017-02-02T05:53:09.238Z,0
2017-02-02T05:54:14.434Z,0
2017-02-02T05:55:19.599Z,0
2017-02-02T05:56:24.796Z,0
2017-02-02T05:57:30.027Z,0
2017-02-02T05:58:36.198Z,0
2017-02-02T05:59:41.618Z,0
2017-02-02T06:00:45.936Z,0
2017-02-02T06:01:52.105Z,0
2017-02-02T06:02:57.532Z,0
2017-02-02T06:04:02.796Z,0
2017-02-02T06:05:08.979Z,0
2017-02-02T06:06:15.239Z,0
2017-02-02T06:07:21.408Z,0
2017-02-02T06:08:25.659Z,0
2017-02-02T06:09:30.889Z,0
2017-02-02T06:10:36.057Z,0
2017-02-02T06:11:42.259Z,0
2017-02-02T06:12:48.436Z,0
2017-02-02T06:13:53.604Z,0
2017-02-02T06:14:59.899Z,0
2017-02-02T06:16:06.028Z,0
2017-02-02T06:17:11.232Z,0
2017-02-02T06:18:17.461Z,0
2017-02-02T06:19:22.671Z,0
2017-02-02T06:20:27.865Z,0
2017-02-02T06:21:33.041Z,0
2017-02-02T06:22:38.238Z,0
2017-02-02T06:23:44.402Z,0
2017-02-02T06:24:49.600Z,0
2017-02-02T06:25:55.775Z,0
2017-02-02T06:27:00.945Z,0
2017-02-02T06:28:06.149Z,0
2017-02-02T06:29:10.357Z,0
2017-02-02T06:30:16.519Z,0
2017-02-02T06:31:21.721Z,0
2017-02-02T06:32:26.910Z,0
2017-02-02T06:33:33.078Z,0
2017-02-02T06:34:39.258Z,0
2017-02-02T06:35:44.438Z,0
2017-02-02T06:36:48.665Z,0
2017-02-02T06:37:54.839Z,0
2017-02-02T06:39:00.157Z,0
2017-02-02T06:40:04.394Z,0
2017-02-02T06:41:09.606Z,0
2017-02-02T06:42:13.847Z,0
2017-02-02T06:43:18.140Z,0
2017-02-02T06:44:23.311Z,0
2017-02-02T06:45:29.496Z,0
2017-02-02T06:46:34.683Z,0
2017-02-02T06:47:38.920Z,0
2017-02-02T06:48:45.298Z,0
2017-02-02T06:49:50.567Z,0
2017-02-02T06:50:56.710Z,0
2017-02-02T06:52:01.911Z,0
2017-02-02T06:53:05.220Z,0
2017-02-02T06:54:11.391Z,0
2017-02-02T06:55:17.564Z,0
2017-02-02T06:56:22.763Z,0
2017-02-02T06:57:27.968Z,5
2017-02-02T06:58:34.132Z,5
2017-02-02T06:59:39.460Z,5
2017-02-02T07:00:44.730Z,5
2017-02-02T07:01:49.939Z,5
2017-02-02T07:02:54.142Z,10
2017-02-02T07:03:59.342Z,10
2017-02-02T07:05:03.574Z,10
2017-02-02T07:06:06.803Z,10
2017-02-02T07:07:13.007Z,15
2017-02-02T07:08:19.168Z,15
2017-02-02T07:09:24.358Z,15
2017-02-02T07:10:29.555Z,20
2017-02-02T07:11:35.718Z,20
2017-02-02T07:12:41.894Z,20
2017-02-02T07:13:46.107Z,25
2017-02-02T07:14:52.283Z,25
2017-02-02T07:15:57.472Z,30
2017-02-02T07:17:03.644Z,30
2017-02-02T07:18:07.118Z,35
2017-02-02T07:19:13.280Z,35
2017-02-02T07:21:23.749Z,40
2017-02-02T07:22:27.939Z,45
2017-02-02T07:23:32.178Z,45
2017-02-02T07:24:38.341Z,45
2017-02-02T07:25:43.539Z,50
2017-02-02T07:26:49.805Z,50
2017-02-02T07:27:55.060Z,50
2017-02-02T07:28:58.298Z,55
2017-02-02T07:30:04.465Z,55
2017-02-02T07:31:08.696Z,55
2017-02-02T07:32:14.865Z,60
2017-02-02T07:33:20.034Z,65
2017-02-02T07:34:25.275Z,65
2017-02-02T07:35:31.442Z,65
2017-02-02T07:36:37.635Z,75
2017-02-02T07:37:43.803Z,80
2017-02-02T07:38:49.966Z,85
2017-02-02T07:39:56.154Z,90
2017-02-02T07:41:02.380Z,90
2017-02-02T07:42:08.560Z,100
2017-02-02T07:43:14.719Z,110
2017-02-02T07:44:19.914Z,115
2017-02-02T07:45:25.090Z,120
2017-02-02T07:46:30.285Z,140
2017-02-02T07:47:35.603Z,155
2017-02-02T07:48:41.774Z,170
2017-02-02T07:49:47.946Z,175
2017-02-02T07:50:54.121Z,180
2017-02-02T07:51:57.385Z,185
2017-02-02T07:53:03.528Z,190
2017-02-02T07:54:06.766Z,195
2017-02-02T07:55:12.942Z,190
2017-02-02T07:56:18.138Z,195
2017-02-02T07:57:23.336Z,170
2017-02-02T07:58:29.503Z,140
2017-02-02T07:59:35.676Z,135
2017-02-02T08:00:39.980Z,155
2017-02-02T08:01:46.148Z,155
2017-02-02T08:02:52.309Z,195
2017-02-02T08:03:57.509Z,215
2017-02-02T08:05:00.752Z,220
2017-02-02T08:06:06.926Z,185
2017-02-02T08:07:10.198Z,120
2017-02-02T08:08:14.476Z,175
2017-02-02T08:09:18.695Z,90
2017-02-02T08:10:23.934Z,95
2017-02-02T08:11:28.173Z,100
2017-02-02T08:12:32.405Z,100
2017-02-02T08:13:38.590Z,105
2017-02-02T08:14:43.801Z,110
2017-02-02T08:15:49.036Z,125
2017-02-02T08:16:54.205Z,130
2017-02-02T08:18:00.378Z,145
2017-02-02T08:19:05.580Z,165
2017-02-02T08:20:07.842Z,185
2017-02-02T08:21:13.086Z,200
2017-02-02T08:22:33.211Z,220
2017-02-02T08:23:39.380Z,245
2017-02-02T08:24:42.645Z,355
2017-02-02T08:25:45.923Z,305
2017-02-02T08:26:50.158Z,350
2017-02-02T08:27:54.378Z,325
2017-02-02T08:28:59.583Z,340
2017-02-02T08:30:03.807Z,280
2017-02-02T08:31:09.015Z,235
2017-02-02T08:32:14.197Z,280
2017-02-02T08:33:19.396Z,325
2017-02-02T08:34:25.556Z,335
2017-02-02T08:35:30.054Z,380
2017-02-02T08:36:36.217Z,370
2017-02-02T08:37:41.467Z,270
2017-02-02T08:38:47.589Z,245
2017-02-02T08:39:53.760Z,290
2017-02-02T08:40:59.002Z,310
2017-02-02T08:42:03.207Z,255
2017-02-02T08:43:06.442Z,215
2017-02-02T08:44:10.675Z,190
2017-02-02T08:45:16.908Z,180
2017-02-02T08:46:21.114Z,185
2017-02-02T08:47:27.295Z,200
2017-02-02T08:48:33.473Z,240
2017-02-02T08:49:39.643Z,270
2017-02-02T08:50:43.870Z,310
2017-02-02T08:51:49.072Z,335
2017-02-02T08:52:55.243Z,570
2017-02-02T08:53:59.483Z,680
2017-02-02T08:55:05.660Z,685
2017-02-02T08:56:11.904Z,695
2017-02-02T08:57:18.077Z,700
2017-02-02T08:58:22.316Z,715
2017-02-02T08:59:28.688Z,730
2017-02-02T09:00:34.950Z,745
2017-02-02T09:01:38.195Z,760
2017-02-02T09:02:43.395Z,775
2017-02-02T09:03:49.564Z,790
2017-02-02T09:04:54.765Z,800
2017-02-02T09:05:59.014Z,820
2017-02-02T09:07:04.215Z,825
2017-02-02T09:08:10.388Z,845
2017-02-02T09:09:14.634Z,845
2017-02-02T09:10:19.814Z,840
2017-02-02T09:11:25.986Z,850
2017-02-02T09:12:32.166Z,870
2017-02-02T09:13:36.587Z,865
2017-02-02T09:14:42.839Z,865
2017-02-02T09:15:47.133Z,875
2017-02-02T09:16:51.348Z,880
2017-02-02T09:17:57.525Z,890
2017-02-02T09:19:03.702Z,915
2017-02-02T09:20:08.881Z,920
2017-02-02T09:21:12.125Z,940
2017-02-02T09:22:18.295Z,995
2017-02-02T09:23:22.508Z,1020
2017-02-02T09:24:28.694Z,970
2017-02-02T09:25:35.099Z,935
2017-02-02T09:26:40.291Z,960
2017-02-02T09:27:46.587Z,985
2017-02-02T09:28:52.782Z,995
2017-02-02T09:31:02.227Z,1015
2017-02-02T09:32:07.405Z,1005
2017-02-02T09:33:12.616Z,990
2017-02-02T09:34:18.805Z,995
2017-02-02T09:35:23.094Z,1015
2017-02-02T09:36:29.329Z,1010
2017-02-02T09:37:34.546Z,1050
2017-02-02T09:38:39.753Z,1065
2017-02-02T09:39:43.990Z,1065
2017-02-02T09:40:49.159Z,1085
2017-02-02T09:41:54.366Z,1100
2017-02-02T09:43:00.588Z,1110
2017-02-02T09:44:04.916Z,1105
2017-02-02T09:45:11.129Z,1115
2017-02-02T09:46:17.308Z,1135
2017-02-02T09:47:22.517Z,1165
2017-02-02T09:48:26.975Z,1165
2017-02-02T09:49:30.254Z,1195
2017-02-02T09:50:35.466Z,1205
2017-02-02T09:51:40.646Z,1160
2017-02-02T09:52:46.910Z,1060
2017-02-02T09:53:52.016Z,1115
2017-02-02T09:54:58.200Z,935
2017-02-02T09:56:04.373Z,965
2017-02-02T09:57:10.548Z,975
2017-02-02T09:58:16.728Z,940
2017-02-02T09:59:21.321Z,1040
2017-02-02T10:00:25.525Z,1135
2017-02-02T10:01:30.734Z,1305
2017-02-02T10:02:35.965Z,1510
2017-02-02T10:03:42.142Z,1490
2017-02-02T10:04:45.422Z,1130
2017-02-02T10:05:51.600Z,1115
2017-02-02T10:06:57.800Z,1145
2017-02-02T10:08:02.088Z,1020
2017-02-02T10:10:11.547Z,790
2017-02-02T10:11:17.737Z,855
2017-02-02T10:12:22.959Z,815
2017-02-02T10:13:27.255Z,805
2017-02-02T10:14:33.440Z,885
2017-02-02T10:15:38.683Z,945
2017-02-02T10:16:43.890Z,1090
2017-02-02T10:17:49.096Z,995
2017-02-02T10:18:53.536Z,890
2017-02-02T10:19:57.751Z,955
2017-02-02T10:21:04.014Z,1265
2017-02-02T10:22:10.200Z,1575
2017-02-02T10:23:14.447Z,1460
2017-02-02T10:24:20.637Z,1400
2017-02-02T10:25:23.890Z,1395
2017-02-02T10:26:29.099Z,1370
2017-02-02T10:27:35.275Z,1355
2017-02-02T10:28:40.487Z,1330
2017-02-02T10:29:45.696Z,1350
2017-02-02T10:30:51.928Z,1345
2017-02-02T10:31:56.160Z,1300
2017-02-02T10:33:01.411Z,1280
2017-02-02T10:34:06.602Z,1320
2017-02-02T10:35:11.816Z,1340
2017-02-02T10:36:16.036Z,1315
2017-02-02T10:37:22.208Z,1335
2017-02-02T10:38:26.435Z,1300
2017-02-02T10:39:30.649Z,1305
2017-02-02T10:40:36.826Z,1320
2017-02-02T10:41:42.034Z,1320
2017-02-02T10:42:48.232Z,1330
2017-02-02T10:43:54.414Z,1335
2017-02-02T10:44:59.644Z,1350
2017-02-02T10:46:05.815Z,1335
2017-02-02T10:47:11.995Z,1315
2017-02-02T10:48:18.180Z,1300
2017-02-02T10:49:24.369Z,1295
2017-02-02T10:50:30.548Z,1255
2017-02-02T10:51:36.729Z,1325
2017-02-02T10:52:42.959Z,1335
2017-02-02T10:53:48.130Z,1425
2017-02-02T10:54:53.364Z,1350
2017-02-02T10:55:58.571Z,1315
2017-02-02T10:57:03.784Z,1295
2017-02-02T10:58:08.965Z,1240
2017-02-02T10:59:14.186Z,1115
2017-02-02T11:00:19.471Z,1110
2017-02-02T11:01:22.747Z,1115
2017-02-02T11:02:28.921Z,1225
2017-02-02T11:03:34.127Z,855
2017-02-02T11:04:39.314Z,335
2017-02-02T11:05:44.526Z,330
2017-02-02T11:06:49.742Z,300
2017-02-02T11:07:55.917Z,330
2017-02-02T11:09:02.197Z,380
2017-02-02T11:10:06.432Z,370
2017-02-02T11:11:10.680Z,365
2017-02-02T11:12:14.894Z,380
2017-02-02T11:13:20.126Z,330
2017-02-02T11:14:24.372Z,305
2017-02-02T11:15:30.578Z,325
2017-02-02T11:16:35.758Z,275
2017-02-02T11:17:40.001Z,260
2017-02-02T11:18:45.214Z,275
2017-02-02T11:19:51.395Z,275
2017-02-02T11:20:57.783Z,290
2017-02-02T11:22:03.965Z,295
2017-02-02T11:23:09.170Z,295
2017-02-02T11:24:13.412Z,310
2017-02-02T11:25:18.617Z,295
2017-02-02T11:26:23.803Z,280
2017-02-02T11:27:29.980Z,270
2017-02-02T11:28:36.156Z,260
2017-02-02T11:29:42.320Z,270
2017-02-02T11:30:47.543Z,285
2017-02-02T11:31:51.753Z,300
2017-02-02T11:32:55.966Z,315
2017-02-02T11:34:00.164Z,350
2017-02-02T11:35:04.373Z,360
2017-02-02T11:36:09.585Z,375
2017-02-02T11:37:14.790Z,385
2017-02-02T11:38:19.995Z,395
2017-02-02T11:39:26.291Z,400
2017-02-02T11:40:31.506Z,405
2017-02-02T11:42:43.862Z,415
2017-02-02T11:43:50.069Z,415
2017-02-02T11:44:56.288Z,410
2017-02-02T11:46:01.494Z,405
2017-02-02T11:47:04.774Z,405
2017-02-02T11:48:09.977Z,400
2017-02-02T11:49:16.150Z,395
2017-02-02T11:50:22.330Z,380
2017-02-02T11:51:28.503Z,365
2017-02-02T11:52:33.721Z,345
2017-02-02T11:53:39.895Z,330
2017-02-02T11:54:46.170Z,310
2017-02-02T11:55:51.483Z,295
2017-02-02T11:56:56.716Z,280
2017-02-02T11:58:00.907Z,270
2017-02-02T11:59:07.073Z,255
2017-02-02T12:00:13.256Z,250
2017-02-02T12:01:19.430Z,245
2017-02-02T12:02:25.635Z,240
2017-02-02T12:03:31.813Z,240
2017-02-02T12:04:37.985Z,240
2017-02-02T12:05:44.159Z,240
2017-02-02T12:06:48.400Z,235
2017-02-02T12:07:53.609Z,235
2017-02-02T12:08:58.810Z,230
2017-02-02T12:11:10.199Z,225
2017-02-02T12:12:14.439Z,230
2017-02-02T12:13:19.646Z,225
2017-02-02T12:14:25.817Z,225
2017-02-02T12:15:31.999Z,220
2017-02-02T12:16:36.215Z,215
2017-02-02T12:17:39.489Z,215
2017-02-02T12:18:44.701Z,210
2017-02-02T12:19:50.892Z,210
2017-02-02T12:20:56.106Z,210
2017-02-02T12:22:01.334Z,205
2017-02-02T12:23:06.524Z,205
2017-02-02T12:24:12.759Z,205
2017-02-02T12:25:16.041Z,200
2017-02-02T12:26:22.224Z,200
2017-02-02T12:27:28.396Z,200
2017-02-02T12:28:32.631Z,200
2017-02-02T12:29:37.852Z,200
2017-02-02T12:30:43.059Z,200
2017-02-02T12:31:49.237Z,200
2017-02-02T12:32:53.447Z,205
2017-02-02T12:33:58.650Z,205
2017-02-02T12:35:04.829Z,205
2017-02-02T12:36:09.067Z,205
2017-02-02T12:37:15.240Z,205
2017-02-02T12:38:19.454Z,205
2017-02-02T12:39:23.663Z,205
2017-02-02T12:40:26.916Z,210
2017-02-02T12:41:32.132Z,210
2017-02-02T12:42:36.343Z,210
2017-02-02T12:43:40.580Z,205
2017-02-02T12:44:45.778Z,205
2017-02-02T12:45:50.986Z,200
2017-02-02T12:46:55.219Z,200
2017-02-02T12:48:01.419Z,195
2017-02-02T12:49:06.599Z,195
2017-02-02T12:50:11.854Z,190
2017-02-02T12:51:17.992Z,185
2017-02-02T12:52:23.194Z,185
2017-02-02T12:53:28.397Z,185
2017-02-02T12:54:34.589Z,180
2017-02-02T12:55:39.812Z,180
2017-02-02T12:56:45.982Z,180
2017-02-02T12:57:52.156Z,180
2017-02-02T12:58:57.605Z,180
2017-02-02T13:00:02.828Z,175
2017-02-02T13:01:07.036Z,170
2017-02-02T13:02:12.267Z,170
2017-02-02T13:03:17.404Z,170
2017-02-02T13:04:23.637Z,170
2017-02-02T13:05:28.794Z,160
2017-02-02T13:06:33.994Z,160
2017-02-02T13:07:39.198Z,165
2017-02-02T13:08:45.371Z,165
2017-02-02T13:09:50.567Z,170
2017-02-02T13:10:56.746Z,170
2017-02-02T13:12:02.960Z,170
2017-02-02T13:13:08.166Z,170
2017-02-02T13:14:13.343Z,170
2017-02-02T13:15:19.528Z,175
2017-02-02T13:16:24.706Z,175
2017-02-02T13:17:29.910Z,175
2017-02-02T13:18:35.096Z,175
2017-02-02T13:19:40.421Z,175
2017-02-02T13:20:46.556Z,175
2017-02-02T13:21:52.806Z,175
2017-02-02T13:22:58.005Z,175
2017-02-02T13:24:04.194Z,175
2017-02-02T13:25:08.411Z,175
2017-02-02T13:26:13.612Z,175
2017-02-02T13:27:18.826Z,175
2017-02-02T13:28:21.093Z,170
2017-02-02T13:29:25.333Z,170
2017-02-02T13:30:30.532Z,170
2017-02-02T13:31:35.711Z,170
2017-02-02T13:32:41.883Z,170
2017-02-02T13:33:47.097Z,170
2017-02-02T13:34:53.268Z,170
2017-02-02T13:35:58.590Z,170
2017-02-02T13:37:03.774Z,165
2017-02-02T13:38:08.963Z,165
2017-02-02T13:39:13.163Z,165
2017-02-02T13:40:18.372Z,165
2017-02-02T13:41:24.551Z,170
2017-02-02T13:42:30.754Z,170
2017-02-02T13:43:35.969Z,175
2017-02-02T13:44:41.184Z,175
2017-02-02T13:45:46.372Z,180
2017-02-02T13:46:51.579Z,185
2017-02-02T13:47:56.906Z,185
2017-02-02T13:49:02.105Z,190
2017-02-02T13:50:07.311Z,190
2017-02-02T13:51:11.564Z,190
2017-02-02T13:52:17.743Z,190
2017-02-02T13:53:21.008Z,185
2017-02-02T13:54:27.195Z,185
2017-02-02T13:55:33.364Z,180
2017-02-02T13:56:38.543Z,180
2017-02-02T13:57:43.756Z,180
2017-02-02T13:58:49.072Z,180
2017-02-02T13:59:55.247Z,175
2017-02-02T14:01:01.417Z,175
2017-02-02T14:02:06.685Z,175
2017-02-02T14:03:09.934Z,170
2017-02-02T14:04:15.147Z,170
2017-02-02T14:05:19.372Z,165
2017-02-02T14:06:25.639Z,165
2017-02-02T14:07:30.846Z,165
2017-02-02T14:08:37.016Z,165
2017-02-02T14:09:43.194Z,165
2017-02-02T14:10:48.381Z,170
2017-02-02T14:11:52.632Z,170
2017-02-02T14:12:56.845Z,170
2017-02-02T14:14:02.033Z,170
2017-02-02T14:15:08.213Z,175
2017-02-02T14:16:14.377Z,175
2017-02-02T14:17:20.568Z,175
2017-02-02T14:18:25.769Z,175
2017-02-02T14:19:32.001Z,175
2017-02-02T14:20:38.174Z,170
2017-02-02T14:21:42.411Z,170
2017-02-02T14:22:46.626Z,165
2017-02-02T14:23:51.828Z,165
2017-02-02T14:24:57.997Z,160
2017-02-02T14:26:04.291Z,160
2017-02-02T14:27:09.644Z,155
2017-02-02T14:28:14.787Z,150
2017-02-02T14:29:20.964Z,150
2017-02-02T14:30:27.138Z,145
2017-02-02T14:31:33.589Z,145
2017-02-02T14:32:38.794Z,140
2017-02-02T14:33:43.995Z,145
2017-02-02T14:34:48.292Z,135
2017-02-02T14:35:53.506Z,135
2017-02-02T14:36:58.707Z,130
2017-02-02T14:38:02.950Z,130
2017-02-02T14:39:08.154Z,130
2017-02-02T14:40:14.328Z,130
2017-02-02T14:41:20.531Z,130
2017-02-02T14:42:23.808Z,125
2017-02-02T14:43:29.934Z,125
2017-02-02T14:44:34.145Z,125
2017-02-02T14:45:40.366Z,120
2017-02-02T14:46:46.539Z,120
2017-02-02T14:47:51.755Z,120
2017-02-02T14:48:57.939Z,115
2017-02-02T14:50:04.110Z,115
2017-02-02T14:51:09.275Z,110
2017-02-02T14:52:14.477Z,110
2017-02-02T14:53:20.660Z,105
2017-02-02T14:54:25.836Z,105
2017-02-02T14:55:32.001Z,105
2017-02-02T14:56:37.221Z,105
2017-02-02T14:57:42.442Z,105
2017-02-02T14:58:47.645Z,100
2017-02-02T14:59:53.834Z,105
2017-02-02T15:01:00.009Z,100
2017-02-02T15:02:05.250Z,95
2017-02-02T15:03:10.414Z,95
2017-02-02T15:04:15.651Z,95
2017-02-02T15:05:19.852Z,90
2017-02-02T15:06:26.028Z,90
2017-02-02T15:07:32.204Z,90
2017-02-02T15:08:37.405Z,85
2017-02-02T15:09:42.638Z,85
2017-02-02T15:10:47.813Z,85
2017-02-02T15:11:53.017Z,80
2017-02-02T15:12:58.218Z,80
2017-02-02T15:14:04.403Z,75
2017-02-02T15:15:07.753Z,75
2017-02-02T15:16:12.922Z,75
2017-02-02T15:17:19.103Z,75
2017-02-02T15:18:25.275Z,70
2017-02-02T15:19:31.449Z,70
2017-02-02T15:20:37.620Z,70
2017-02-02T15:21:42.827Z,70
2017-02-02T15:22:47.033Z,70
2017-02-02T15:23:52.236Z,65
2017-02-02T15:24:57.450Z,65
2017-02-02T15:26:03.615Z,60
2017-02-02T15:27:07.900Z,60
2017-02-02T15:28:13.088Z,60
2017-02-02T15:29:18.369Z,55
2017-02-02T15:30:24.502Z,55
2017-02-02T15:31:29.705Z,50
2017-02-02T15:32:34.916Z,50
2017-02-02T15:33:40.105Z,50
2017-02-02T15:34:46.298Z,50
2017-02-02T15:35:51.505Z,45